Lithia, Virginia
Current Conditions -  °F | °C
As of 3:54 AM on Wednesday 28 Jan 2015 (Local Time) from KROA Reporting Station
Few Clouds Few Clouds  
Wind Chill: 14°   Ceiling: Unl
Heat Index: 24°   Visibility: 10mi
Dew Point: 11°   Wind: 9mph
Humidity: 57%   Direction: 300°WNW
Pressure: 30.12"   Gusts: NA
Location:  37.5115°N, 79.6704°W
Report Text: KROA 280854Z 30008KT 10SM FEW037 M04/M12 A3012 RMK AO2 SLP208 T10441117 51017
Loading
Personal Weather Stations






























Interactive Weather Map New forecast layout! Learn more

10-Day Weather Forecast

Advertisements
Track Severe Weather on mobile